sensor_id;sensor_type;location;lat;lon;timestamp;temperature;humidity
49236;DHT22;35067;48.134;8.378;2023-07-29T00:00:43;15.20;99.90
49236;DHT22;35067;48.134;8.378;2023-07-29T00:01:44;15.20;99.90
49236;DHT22;35067;48.134;8.378;2023-07-29T00:02:45;15.10;99.90
49236;DHT22;35067;48.134;8.378;2023-07-29T00:03:46;15.00;99.90
49236;DHT22;35067;48.134;8.378;2023-07-29T00:04:47;15.10;99.90
49236;DHT22;35067;48.134;8.378;2023-07-29T00:05:48;15.00;99.90
49236;DHT22;35067;48.134;8.378;2023-07-29T00:06:48;15.00;99.90
49236;DHT22;35067;48.134;8.378;2023-07-29T00:07:49;15.00;99.90
49236;DHT22;35067;48.134;8.378;2023-07-29T00:08:50;15.10;99.90
49236;DHT22;35067;48.134;8.378;2023-07-29T00:09:50;15.00;99.90
49236;DHT22;35067;48.134;8.378;2023-07-29T00:10:51;15.00;99.90
49236;DHT22;35067;48.134;8.378;2023-07-29T00:11:53;14.90;99.90
49236;DHT22;35067;48.134;8.378;2023-07-29T00:12:54;14.90;99.90
49236;DHT22;35067;48.134;8.378;2023-07-29T00:13:55;14.80;99.90
49236;DHT22;35067;48.134;8.378;2023-07-29T00:14:55;14.80;99.90
49236;DHT22;35067;48.134;8.378;2023-07-29T00:15:56;14.70;99.90
49236;DHT22;35067;48.134;8.378;2023-07-29T00:16:57;14.80;99.90
49236;DHT22;35067;48.134;8.378;2023-07-29T00:17:57;14.70;99.90
49236;DHT22;35067;48.134;8.378;2023-07-29T00:18:58;14.80;99.90
49236;DHT22;35067;48.134;8.378;2023-07-29T00:19:59;14.80;99.90
49236;DHT22;35067;48.134;8.378;2023-07-29T00:20:59;14.70;99.90
49236;DHT22;35067;48.134;8.378;2023-07-29T00:22:00;14.60;99.90
49236;DHT22;35067;48.134;8.378;2023-07-29T00:23:01;14.60;99.90
49236;DHT22;35067;48.134;8.378;2023-07-29T00:24:03;14.60;99.90
49236;DHT22;35067;48.134;8.378;2023-07-29T00:25:03;14.50;99.90
49236;DHT22;35067;48.134;8.378;2023-07-29T00:26:04;14.60;99.90
49236;DHT22;35067;48.134;8.378;2023-07-29T00:27:05;14.70;99.90
49236;DHT22;35067;48.134;8.378;2023-07-29T00:28:06;14.60;99.90
49236;DHT22;35067;48.134;8.378;2023-07-29T00:29:07;14.60;99.90
49236;DHT22;35067;48.134;8.378;2023-07-29T00:30:08;14.60;99.90
49236;DHT22;35067;48.134;8.378;2023-07-29T00:31:08;14.70;99.90
49236;DHT22;35067;48.134;8.378;2023-07-29T00:32:09;14.70;99.90
49236;DHT22;35067;48.134;8.378;2023-07-29T00:33:10;14.60;99.90
49236;DHT22;35067;48.134;8.378;2023-07-29T00:34:11;14.60;99.90
49236;DHT22;35067;48.134;8.378;2023-07-29T00:35:12;14.40;99.90
49236;DHT22;35067;48.134;8.378;2023-07-29T00:36:13;14.40;99.90
49236;DHT22;35067;48.134;8.378;2023-07-29T00:37:13;14.40;99.90
49236;DHT22;35067;48.134;8.378;2023-07-29T00:38:14;14.40;99.90
49236;DHT22;35067;48.134;8.378;2023-07-29T00:39:15;14.40;99.90
49236;DHT22;35067;48.134;8.378;2023-07-29T00:40:19;14.50;99.90
49236;DHT22;35067;48.134;8.378;2023-07-29T00:41:21;14.40;99.90
49236;DHT22;35067;48.134;8.378;2023-07-29T00:42:23;14.40;99.90
49236;DHT22;35067;48.134;8.378;2023-07-29T00:43:23;14.40;99.90
49236;DHT22;35067;48.134;8.378;2023-07-29T00:44:24;14.40;99.90
49236;DHT22;35067;48.134;8.378;2023-07-29T00:45:25;14.50;99.90
49236;DHT22;35067;48.134;8.378;2023-07-29T00:46:28;14.50;99.90
49236;DHT22;35067;48.134;8.378;2023-07-29T00:47:29;14.50;99.90
49236;DHT22;35067;48.134;8.378;2023-07-29T00:48:30;14.40;99.90
49236;DHT22;35067;48.134;8.378;2023-07-29T00:49:30;14.40;99.90
49236;DHT22;35067;48.134;8.378;2023-07-29T00:50:32;14.30;99.90
49236;DHT22;35067;48.134;8.378;2023-07-29T00:51:33;14.40;99.90
49236;DHT22;35067;48.134;8.378;2023-07-29T00:52:34;14.30;99.90
49236;DHT22;35067;48.134;8.378;2023-07-29T00:53:34;14.20;99.90
49236;DHT22;35067;48.134;8.378;2023-07-29T00:54:35;14.10;99.90
49236;DHT22;35067;48.134;8.378;2023-07-29T00:55:37;14.10;99.90
49236;DHT22;35067;48.134;8.378;2023-07-29T00:56:38;14.10;99.90
49236;DHT22;35067;48.134;8.378;2023-07-29T00:57:40;14.20;99.90
49236;DHT22;35067;48.134;8.378;2023-07-29T00:58:42;14.10;99.90
49236;DHT22;35067;48.134;8.378;2023-07-29T00:59:43;13.90;99.90
49236;DHT22;35067;48.134;8.378;2023-07-29T01:00:44;14.00;99.90
49236;DHT22;35067;48.134;8.378;2023-07-29T01:01:45;14.00;99.90
49236;DHT22;35067;48.134;8.378;2023-07-29T01:02:47;14.10;99.90
49236;DHT22;35067;48.134;8.378;2023-07-29T01:03:48;14.30;99.90
49236;DHT22;35067;48.134;8.378;2023-07-29T01:04:53;14.20;99.90
49236;DHT22;35067;48.134;8.378;2023-07-29T01:06:16;14.30;99.90
49236;DHT22;35067;48.134;8.378;2023-07-29T01:08:43;14.30;99.90
49236;DHT22;35067;48.134;8.378;2023-07-29T01:13:29;14.40;99.90
49236;DHT22;35067;48.134;8.378;2023-07-29T01:16:20;14.30;99.90
49236;DHT22;35067;48.134;8.378;2023-07-29T01:17:33;14.30;99.90
49236;DHT22;35067;48.134;8.378;2023-07-29T01:18:36;14.20;99.90
49236;DHT22;35067;48.134;8.378;2023-07-29T01:19:43;14.30;99.90
49236;DHT22;35067;48.134;8.378;2023-07-29T01:20:59;14.30;99.90
49236;DHT22;35067;48.134;8.378;2023-07-29T01:22:04;14.30;99.90
49236;DHT22;35067;48.134;8.378;2023-07-29T01:23:05;14.30;99.90
49236;DHT22;35067;48.134;8.378;2023-07-29T01:24:06;14.20;99.90
49236;DHT22;35067;48.134;8.378;2023-07-29T01:25:07;14.10;99.90
49236;DHT22;35067;48.134;8.378;2023-07-29T01:26:08;14.20;99.90
49236;DHT22;35067;48.134;8.378;2023-07-29T01:27:08;14.20;99.90
49236;DHT22;35067;48.134;8.378;2023-07-29T01:28:09;14.20;99.90
49236;DHT22;35067;48.134;8.378;2023-07-29T01:29:10;14.20;99.90
49236;DHT22;35067;48.134;8.378;2023-07-29T01:30:11;14.20;99.90
49236;DHT22;35067;48.134;8.378;2023-07-29T01:31:38;14.20;99.90
49236;DHT22;35067;48.134;8.378;2023-07-29T01:33:02;14.20;99.90
49236;DHT22;35067;48.134;8.378;2023-07-29T01:34:23;14.10;99.90
49236;DHT22;35067;48.134;8.378;2023-07-29T01:35:31;14.00;99.90
49236;DHT22;35067;48.134;8.378;2023-07-29T01:36:35;13.90;99.90
49236;DHT22;35067;48.134;8.378;2023-07-29T01:37:41;14.00;99.90
49236;DHT22;35067;48.134;8.378;2023-07-29T01:38:44;14.00;99.90
49236;DHT22;35067;48.134;8.378;2023-07-29T01:39:45;14.10;99.90
49236;DHT22;35067;48.134;8.378;2023-07-29T01:40:48;14.00;99.90
49236;DHT22;35067;48.134;8.378;2023-07-29T01:41:51;14.00;99.90
49236;DHT22;35067;48.134;8.378;2023-07-29T01:42:51;13.90;99.90
49236;DHT22;35067;48.134;8.378;2023-07-29T01:43:53;13.90;99.90
49236;DHT22;35067;48.134;8.378;2023-07-29T01:44:54;14.00;99.90
49236;DHT22;35067;48.134;8.378;2023-07-29T01:45:54;14.10;99.90
49236;DHT22;35067;48.134;8.378;2023-07-29T01:46:56;14.00;99.90
49236;DHT22;35067;48.134;8.378;2023-07-29T01:47:57;14.00;99.90
49236;DHT22;35067;48.134;8.378;2023-07-29T01:48:57;14.10;99.90
49236;DHT22;35067;48.134;8.378;2023-07-29T01:49:58;14.10;99.90
49236;DHT22;35067;48.134;8.378;2023-07-29T01:50:59;14.10;99.90
49236;DHT22;35067;48.134;8.378;2023-07-29T01:51:59;13.90;99.90
49236;DHT22;35067;48.134;8.378;2023-07-29T01:53:00;14.10;99.90
49236;DHT22;35067;48.134;8.378;2023-07-29T01:54:01;14.10;99.90
49236;DHT22;35067;48.134;8.378;2023-07-29T01:55:02;14.10;99.90
49236;DHT22;35067;48.134;8.378;2023-07-29T01:56:03;14.10;99.90
49236;DHT22;35067;48.134;8.378;2023-07-29T01:57:04;14.10;99.90
49236;DHT22;35067;48.134;8.378;2023-07-29T01:58:04;14.10;99.90
49236;DHT22;35067;48.134;8.378;2023-07-29T01:59:05;14.10;99.90
49236;DHT22;35067;48.134;8.378;2023-07-29T02:00:06;14.10;99.90
49236;DHT22;35067;48.134;8.378;2023-07-29T02:01:08;14.10;99.90
49236;DHT22;35067;48.134;8.378;2023-07-29T02:02:08;14.20;99.90
49236;DHT22;35067;48.134;8.378;2023-07-29T02:03:09;14.20;99.90
49236;DHT22;35067;48.134;8.378;2023-07-29T02:04:10;14.20;99.90
49236;DHT22;35067;48.134;8.378;2023-07-29T02:05:11;14.20;99.90
49236;DHT22;35067;48.134;8.378;2023-07-29T02:06:11;14.20;99.90
49236;DHT22;35067;48.134;8.378;2023-07-29T02:07:12;14.20;99.90
49236;DHT22;35067;48.134;8.378;2023-07-29T02:08:12;14.20;99.90
49236;DHT22;35067;48.134;8.378;2023-07-29T02:09:14;14.20;99.90
49236;DHT22;35067;48.134;8.378;2023-07-29T02:10:15;14.30;99.90
49236;DHT22;35067;48.134;8.378;2023-07-29T02:11:15;14.30;99.90
49236;DHT22;35067;48.134;8.378;2023-07-29T02:12:16;14.30;99.90
49236;DHT22;35067;48.134;8.378;2023-07-29T02:13:17;14.40;99.90
49236;DHT22;35067;48.134;8.378;2023-07-29T02:14:17;14.40;99.90
49236;DHT22;35067;48.134;8.378;2023-07-29T02:15:18;14.40;99.90
49236;DHT22;35067;48.134;8.378;2023-07-29T02:16:19;14.50;99.90
49236;DHT22;35067;48.134;8.378;2023-07-29T02:17:20;14.50;99.90
49236;DHT22;35067;48.134;8.378;2023-07-29T02:18:21;14.40;99.90
49236;DHT22;35067;48.134;8.378;2023-07-29T02:19:22;14.40;99.90
49236;DHT22;35067;48.134;8.378;2023-07-29T02:20:23;14.40;99.90
49236;DHT22;35067;48.134;8.378;2023-07-29T02:21:23;14.40;99.90
49236;DHT22;35067;48.134;8.378;2023-07-29T02:22:24;14.40;99.90
49236;DHT22;35067;48.134;8.378;2023-07-29T02:23:25;14.50;99.90
49236;DHT22;35067;48.134;8.378;2023-07-29T02:24:26;14.50;99.90
49236;DHT22;35067;48.134;8.378;2023-07-29T02:25:27;14.60;99.90
49236;DHT22;35067;48.134;8.378;2023-07-29T02:26:28;14.50;99.90
49236;DHT22;35067;48.134;8.378;2023-07-29T02:27:28;14.50;99.90
49236;DHT22;35067;48.134;8.378;2023-07-29T02:28:29;14.60;99.90
49236;DHT22;35067;48.134;8.378;2023-07-29T02:29:30;14.60;99.90
49236;DHT22;35067;48.134;8.378;2023-07-29T02:30:31;14.50;99.90
49236;DHT22;35067;48.134;8.378;2023-07-29T02:31:31;14.60;99.90
49236;DHT22;35067;48.134;8.378;2023-07-29T02:32:32;14.60;99.90
49236;DHT22;35067;48.134;8.378;2023-07-29T02:33:33;14.60;99.90
49236;DHT22;35067;48.134;8.378;2023-07-29T02:34:33;14.70;99.90
49236;DHT22;35067;48.134;8.378;2023-07-29T02:35:34;14.80;99.90
49236;DHT22;35067;48.134;8.378;2023-07-29T02:36:36;14.80;99.90
49236;DHT22;35067;48.134;8.378;2023-07-29T02:37:37;14.70;99.90
49236;DHT22;35067;48.134;8.378;2023-07-29T02:38:38;14.70;99.90
49236;DHT22;35067;48.134;8.378;2023-07-29T02:39:39;14.70;99.90
49236;DHT22;35067;48.134;8.378;2023-07-29T02:40:40;14.60;99.90
49236;DHT22;35067;48.134;8.378;2023-07-29T02:41:41;14.70;99.90
49236;DHT22;35067;48.134;8.378;2023-07-29T02:42:42;14.70;99.90
49236;DHT22;35067;48.134;8.378;2023-07-29T02:43:43;14.70;99.90
49236;DHT22;35067;48.134;8.378;2023-07-29T02:44:44;14.60;99.90
49236;DHT22;35067;48.134;8.378;2023-07-29T02:45:44;14.60;99.90
49236;DHT22;35067;48.134;8.378;2023-07-29T02:46:45;14.70;99.90
49236;DHT22;35067;48.134;8.378;2023-07-29T02:47:46;14.70;99.90
49236;DHT22;35067;48.134;8.378;2023-07-29T02:48:47;14.70;99.90
49236;DHT22;35067;48.134;8.378;2023-07-29T02:49:47;14.70;99.90
49236;DHT22;35067;48.134;8.378;2023-07-29T02:50:48;14.70;99.90
49236;DHT22;35067;48.134;8.378;2023-07-29T02:51:49;14.60;99.90
49236;DHT22;35067;48.134;8.378;2023-07-29T02:52:50;14.60;99.90
49236;DHT22;35067;48.134;8.378;2023-07-29T02:53:50;14.50;99.90
49236;DHT22;35067;48.134;8.378;2023-07-29T02:54:51;14.60;99.90
49236;DHT22;35067;48.134;8.378;2023-07-29T02:55:52;14.70;99.90
49236;DHT22;35067;48.134;8.378;2023-07-29T02:56:53;14.70;99.90
49236;DHT22;35067;48.134;8.378;2023-07-29T02:57:54;14.70;99.90
49236;DHT22;35067;48.134;8.378;2023-07-29T02:58:54;14.70;99.90
49236;DHT22;35067;48.134;8.378;2023-07-29T02:59:55;14.60;99.90
49236;DHT22;35067;48.134;8.378;2023-07-29T03:01:06;14.50;99.90
49236;DHT22;35067;48.134;8.378;2023-07-29T03:02:06;14.50;99.90
49236;DHT22;35067;48.134;8.378;2023-07-29T03:03:08;14.60;99.90
49236;DHT22;35067;48.134;8.378;2023-07-29T03:04:08;14.60;99.90
49236;DHT22;35067;48.134;8.378;2023-07-29T03:05:09;14.60;99.90
49236;DHT22;35067;48.134;8.378;2023-07-29T03:06:12;14.40;99.90
49236;DHT22;35067;48.134;8.378;2023-07-29T03:07:13;14.20;99.90
49236;DHT22;35067;48.134;8.378;2023-07-29T03:08:14;14.10;99.90
49236;DHT22;35067;48.134;8.378;2023-07-29T03:09:15;14.10;99.90
49236;DHT22;35067;48.134;8.378;2023-07-29T03:10:15;14.10;99.90
49236;DHT22;35067;48.134;8.378;2023-07-29T03:11:16;14.10;99.90
49236;DHT22;35067;48.134;8.378;2023-07-29T03:12:17;14.20;99.90
49236;DHT22;35067;48.134;8.378;2023-07-29T03:13:18;14.20;99.90
49236;DHT22;35067;48.134;8.378;2023-07-29T03:14:18;14.30;99.90
49236;DHT22;35067;48.134;8.378;2023-07-29T03:15:22;14.30;99.90
49236;DHT22;35067;48.134;8.378;2023-07-29T03:16:23;14.30;99.90
49236;DHT22;35067;48.134;8.378;2023-07-29T03:17:24;14.30;99.90
49236;DHT22;35067;48.134;8.378;2023-07-29T03:18:25;14.40;99.90
49236;DHT22;35067;48.134;8.378;2023-07-29T03:19:25;14.50;99.90
49236;DHT22;35067;48.134;8.378;2023-07-29T03:20:26;14.50;99.90
49236;DHT22;35067;48.134;8.378;2023-07-29T03:21:27;14.60;99.90
49236;DHT22;35067;48.134;8.378;2023-07-29T03:22:27;14.50;99.90
49236;DHT22;35067;48.134;8.378;2023-07-29T03:23:29;14.50;99.90
49236;DHT22;35067;48.134;8.378;2023-07-29T03:24:30;14.50;99.90
49236;DHT22;35067;48.134;8.378;2023-07-29T03:25:31;14.50;99.90
49236;DHT22;35067;48.134;8.378;2023-07-29T03:26:32;14.50;99.90
49236;DHT22;35067;48.134;8.378;2023-07-29T03:27:32;14.50;99.90
49236;DHT22;35067;48.134;8.378;2023-07-29T03:28:33;14.50;99.90
49236;DHT22;35067;48.134;8.378;2023-07-29T03:29:34;14.40;99.90
49236;DHT22;35067;48.134;8.378;2023-07-29T03:30:35;14.50;99.90
49236;DHT22;35067;48.134;8.378;2023-07-29T03:31:35;14.50;99.90
49236;DHT22;35067;48.134;8.378;2023-07-29T03:32:43;14.40;99.90
49236;DHT22;35067;48.134;8.378;2023-07-29T03:33:47;14.40;99.90
49236;DHT22;35067;48.134;8.378;2023-07-29T03:34:48;14.50;99.90
49236;DHT22;35067;48.134;8.378;2023-07-29T03:35:48;14.40;99.90
49236;DHT22;35067;48.134;8.378;2023-07-29T03:36:49;14.30;99.90
49236;DHT22;35067;48.134;8.378;2023-07-29T03:37:51;14.20;99.90
49236;DHT22;35067;48.134;8.378;2023-07-29T03:38:52;14.10;99.90
49236;DHT22;35067;48.134;8.378;2023-07-29T03:39:53;14.10;99.90
49236;DHT22;35067;48.134;8.378;2023-07-29T03:40:54;14.20;99.90
49236;DHT22;35067;48.134;8.378;2023-07-29T03:41:54;14.10;99.90
49236;DHT22;35067;48.134;8.378;2023-07-29T03:42:55;14.10;99.90
49236;DHT22;35067;48.134;8.378;2023-07-29T03:43:56;14.10;99.90
49236;DHT22;35067;48.134;8.378;2023-07-29T03:44:56;14.20;99.90
49236;DHT22;35067;48.134;8.378;2023-07-29T03:45:57;14.30;99.90
49236;DHT22;35067;48.134;8.378;2023-07-29T03:46:58;14.30;99.90
49236;DHT22;35067;48.134;8.378;2023-07-29T03:47:59;14.20;99.90
49236;DHT22;35067;48.134;8.378;2023-07-29T03:48:59;14.20;99.90
49236;DHT22;35067;48.134;8.378;2023-07-29T03:50:00;14.30;99.90
49236;DHT22;35067;48.134;8.378;2023-07-29T03:51:02;14.20;99.90
49236;DHT22;35067;48.134;8.378;2023-07-29T03:52:03;14.30;99.90
49236;DHT22;35067;48.134;8.378;2023-07-29T03:53:04;14.30;99.90
49236;DHT22;35067;48.134;8.378;2023-07-29T03:54:05;14.40;99.90
49236;DHT22;35067;48.134;8.378;2023-07-29T03:55:07;14.50;99.90
49236;DHT22;35067;48.134;8.378;2023-07-29T03:56:08;14.40;99.90
49236;DHT22;35067;48.134;8.378;2023-07-29T03:57:10;14.60;99.90
49236;DHT22;35067;48.134;8.378;2023-07-29T03:58:12;14.50;99.90
49236;DHT22;35067;48.134;8.378;2023-07-29T03:59:12;14.60;99.90
49236;DHT22;35067;48.134;8.378;2023-07-29T04:00:13;14.60;99.90
49236;DHT22;35067;48.134;8.378;2023-07-29T04:01:14;14.60;99.90
49236;DHT22;35067;48.134;8.378;2023-07-29T04:02:15;14.60;99.90
49236;DHT22;35067;48.134;8.378;2023-07-29T04:03:15;14.70;99.90
49236;DHT22;35067;48.134;8.378;2023-07-29T04:04:16;14.70;99.90
49236;DHT22;35067;48.134;8.378;2023-07-29T04:05:17;14.70;99.90
49236;DHT22;35067;48.134;8.378;2023-07-29T04:06:18;14.70;99.90
49236;DHT22;35067;48.134;8.378;2023-07-29T04:07:19;14.70;99.90
49236;DHT22;35067;48.134;8.378;2023-07-29T04:08:20;14.70;99.90
49236;DHT22;35067;48.134;8.378;2023-07-29T04:09:20;14.70;99.90
49236;DHT22;35067;48.134;8.378;2023-07-29T04:10:21;14.60;99.90
49236;DHT22;35067;48.134;8.378;2023-07-29T04:11:23;14.70;99.90
49236;DHT22;35067;48.134;8.378;2023-07-29T04:12:23;14.60;99.90
49236;DHT22;35067;48.134;8.378;2023-07-29T04:13:24;14.60;99.90
49236;DHT22;35067;48.134;8.378;2023-07-29T04:14:25;14.70;99.90
49236;DHT22;35067;48.134;8.378;2023-07-29T04:15:26;14.60;99.90
49236;DHT22;35067;48.134;8.378;2023-07-29T04:16:26;14.70;99.90
49236;DHT22;35067;48.134;8.378;2023-07-29T04:17:28;14.70;99.90
49236;DHT22;35067;48.134;8.378;2023-07-29T04:18:29;14.70;99.90
49236;DHT22;35067;48.134;8.378;2023-07-29T04:19:30;14.60;99.90
49236;DHT22;35067;48.134;8.378;2023-07-29T04:20:30;14.70;99.90
49236;DHT22;35067;48.134;8.378;2023-07-29T04:21:31;14.80;99.90
49236;DHT22;35067;48.134;8.378;2023-07-29T04:22:32;14.50;99.90
49236;DHT22;35067;48.134;8.378;2023-07-29T04:23:33;14.60;99.90
49236;DHT22;35067;48.134;8.378;2023-07-29T04:24:33;14.60;99.90
49236;DHT22;35067;48.134;8.378;2023-07-29T04:25:34;14.50;99.90
49236;DHT22;35067;48.134;8.378;2023-07-29T04:26:35;14.60;99.90
49236;DHT22;35067;48.134;8.378;2023-07-29T04:27:35;14.70;99.90
49236;DHT22;35067;48.134;8.378;2023-07-29T04:28:36;14.70;99.90
49236;DHT22;35067;48.134;8.378;2023-07-29T04:29:37;14.70;99.90
49236;DHT22;35067;48.134;8.378;2023-07-29T04:30:38;14.80;99.90
49236;DHT22;35067;48.134;8.378;2023-07-29T04:31:39;14.80;99.90
49236;DHT22;35067;48.134;8.378;2023-07-29T04:32:40;14.90;99.90
49236;DHT22;35067;48.134;8.378;2023-07-29T04:33:42;14.90;99.90
49236;DHT22;35067;48.134;8.378;2023-07-29T04:34:43;14.90;99.90
49236;DHT22;35067;48.134;8.378;2023-07-29T04:35:43;14.90;99.90
49236;DHT22;35067;48.134;8.378;2023-07-29T04:36:45;14.90;99.90
49236;DHT22;35067;48.134;8.378;2023-07-29T04:37:46;14.90;99.90
49236;DHT22;35067;48.134;8.378;2023-07-29T04:38:48;14.90;99.90
49236;DHT22;35067;48.134;8.378;2023-07-29T04:39:51;14.80;99.90
49236;DHT22;35067;48.134;8.378;2023-07-29T04:40:52;14.80;99.90
49236;DHT22;35067;48.134;8.378;2023-07-29T04:41:53;14.70;99.90
49236;DHT22;35067;48.134;8.378;2023-07-29T04:42:53;14.60;99.90
49236;DHT22;35067;48.134;8.378;2023-07-29T04:43:54;14.60;99.90
49236;DHT22;35067;48.134;8.378;2023-07-29T04:44:55;14.60;99.90
49236;DHT22;35067;48.134;8.378;2023-07-29T04:45:56;14.60;99.90
49236;DHT22;35067;48.134;8.378;2023-07-29T04:46:56;14.60;99.90
49236;DHT22;35067;48.134;8.378;2023-07-29T04:47:58;14.60;99.90
49236;DHT22;35067;48.134;8.378;2023-07-29T04:48:59;14.70;99.90
49236;DHT22;35067;48.134;8.378;2023-07-29T04:49:59;14.50;99.90
49236;DHT22;35067;48.134;8.378;2023-07-29T04:51:00;14.40;99.90
49236;DHT22;35067;48.134;8.378;2023-07-29T04:52:01;14.50;99.90
49236;DHT22;35067;48.134;8.378;2023-07-29T04:53:02;14.60;99.90
49236;DHT22;35067;48.134;8.378;2023-07-29T04:54:02;14.60;99.90
49236;DHT22;35067;48.134;8.378;2023-07-29T04:55:03;14.70;99.90
49236;DHT22;35067;48.134;8.378;2023-07-29T04:56:04;14.70;99.90
49236;DHT22;35067;48.134;8.378;2023-07-29T04:57:05;14.80;99.90
49236;DHT22;35067;48.134;8.378;2023-07-29T04:58:06;14.80;99.90
49236;DHT22;35067;48.134;8.378;2023-07-29T04:59:07;14.80;99.90
49236;DHT22;35067;48.134;8.378;2023-07-29T05:00:09;14.90;99.90
49236;DHT22;35067;48.134;8.378;2023-07-29T05:01:10;14.90;99.90
49236;DHT22;35067;48.134;8.378;2023-07-29T05:02:10;15.10;99.90
49236;DHT22;35067;48.134;8.378;2023-07-29T05:03:11;15.10;99.90
49236;DHT22;35067;48.134;8.378;2023-07-29T05:04:12;15.20;99.90
49236;DHT22;35067;48.134;8.378;2023-07-29T05:05:13;15.20;99.90
49236;DHT22;35067;48.134;8.378;2023-07-29T05:06:13;15.30;99.90
49236;DHT22;35067;48.134;8.378;2023-07-29T05:07:14;15.40;99.90
49236;DHT22;35067;48.134;8.378;2023-07-29T05:08:16;15.40;99.90
49236;DHT22;35067;48.134;8.378;2023-07-29T05:09:18;15.50;99.90
49236;DHT22;35067;48.134;8.378;2023-07-29T05:10:20;15.50;99.90
49236;DHT22;35067;48.134;8.378;2023-07-29T05:11:21;15.70;99.90
49236;DHT22;35067;48.134;8.378;2023-07-29T05:12:22;15.70;99.90
49236;DHT22;35067;48.134;8.378;2023-07-29T05:13:23;15.70;99.90
49236;DHT22;35067;48.134;8.378;2023-07-29T05:14:24;15.60;99.90
49236;DHT22;35067;48.134;8.378;2023-07-29T05:15:25;15.60;99.90
49236;DHT22;35067;48.134;8.378;2023-07-29T05:16:25;15.70;99.90
49236;DHT22;35067;48.134;8.378;2023-07-29T05:17:26;15.80;99.90
49236;DHT22;35067;48.134;8.378;2023-07-29T05:18:27;15.80;99.90
49236;DHT22;35067;48.134;8.378;2023-07-29T05:19:27;15.90;99.90
49236;DHT22;35067;48.134;8.378;2023-07-29T05:20:28;15.90;99.90
49236;DHT22;35067;48.134;8.378;2023-07-29T05:21:29;15.90;99.90
49236;DHT22;35067;48.134;8.378;2023-07-29T05:22:30;15.90;99.90
49236;DHT22;35067;48.134;8.378;2023-07-29T05:23:31;16.00;99.90
49236;DHT22;35067;48.134;8.378;2023-07-29T05:24:31;15.90;99.90
49236;DHT22;35067;48.134;8.378;2023-07-29T05:25:32;15.80;99.90
49236;DHT22;35067;48.134;8.378;2023-07-29T05:26:35;15.80;99.90
49236;DHT22;35067;48.134;8.378;2023-07-29T05:27:35;15.90;99.90
49236;DHT22;35067;48.134;8.378;2023-07-29T05:28:36;16.00;99.90
49236;DHT22;35067;48.134;8.378;2023-07-29T05:29:37;16.00;99.90
49236;DHT22;35067;48.134;8.378;2023-07-29T05:30:37;16.10;99.90
49236;DHT22;35067;48.134;8.378;2023-07-29T05:31:40;16.20;99.90
49236;DHT22;35067;48.134;8.378;2023-07-29T05:32:41;16.20;99.90
49236;DHT22;35067;48.134;8.378;2023-07-29T05:33:41;16.20;99.90
49236;DHT22;35067;48.134;8.378;2023-07-29T05:34:42;16.00;99.90
49236;DHT22;35067;48.134;8.378;2023-07-29T05:35:43;16.00;99.90
49236;DHT22;35067;48.134;8.378;2023-07-29T05:36:44;16.00;99.90
49236;DHT22;35067;48.134;8.378;2023-07-29T05:37:44;16.10;99.90
49236;DHT22;35067;48.134;8.378;2023-07-29T05:38:45;16.00;99.90
49236;DHT22;35067;48.134;8.378;2023-07-29T05:39:46;16.10;99.90
49236;DHT22;35067;48.134;8.378;2023-07-29T05:40:48;16.10;99.90
49236;DHT22;35067;48.134;8.378;2023-07-29T05:41:49;16.10;99.90
49236;DHT22;35067;48.134;8.378;2023-07-29T05:42:50;16.00;99.90
49236;DHT22;35067;48.134;8.378;2023-07-29T05:43:50;16.00;99.90
49236;DHT22;35067;48.134;8.378;2023-07-29T05:44:51;16.20;99.90
49236;DHT22;35067;48.134;8.378;2023-07-29T05:45:52;16.30;99.90
49236;DHT22;35067;48.134;8.378;2023-07-29T05:46:52;16.20;99.90
49236;DHT22;35067;48.134;8.378;2023-07-29T05:47:53;16.30;99.90
49236;DHT22;35067;48.134;8.378;2023-07-29T05:48:54;16.50;99.90
49236;DHT22;35067;48.134;8.378;2023-07-29T05:49:55;16.50;99.90
49236;DHT22;35067;48.134;8.378;2023-07-29T05:50:55;16.60;99.90
49236;DHT22;35067;48.134;8.378;2023-07-29T05:51:56;16.70;99.90
49236;DHT22;35067;48.134;8.378;2023-07-29T05:52:57;16.80;99.90
49236;DHT22;35067;48.134;8.378;2023-07-29T05:53:57;16.90;99.90
49236;DHT22;35067;48.134;8.378;2023-07-29T05:54:58;17.00;99.90
49236;DHT22;35067;48.134;8.378;2023-07-29T05:55:59;17.10;99.90
49236;DHT22;35067;48.134;8.378;2023-07-29T05:57:00;17.20;99.90
49236;DHT22;35067;48.134;8.378;2023-07-29T05:58:00;17.40;99.90
49236;DHT22;35067;48.134;8.378;2023-07-29T05:59:01;17.60;99.90
49236;DHT22;35067;48.134;8.378;2023-07-29T06:00:02;17.80;99.90
49236;DHT22;35067;48.134;8.378;2023-07-29T06:01:03;17.90;99.90
49236;DHT22;35067;48.134;8.378;2023-07-29T06:02:04;18.10;99.90
49236;DHT22;35067;48.134;8.378;2023-07-29T06:03:05;18.20;99.90
49236;DHT22;35067;48.134;8.378;2023-07-29T06:04:06;18.10;99.90
49236;DHT22;35067;48.134;8.378;2023-07-29T06:05:07;18.10;99.90
49236;DHT22;35067;48.134;8.378;2023-07-29T06:06:08;18.10;99.90
49236;DHT22;35067;48.134;8.378;2023-07-29T06:07:09;18.10;99.90
49236;DHT22;35067;48.134;8.378;2023-07-29T06:08:10;17.90;99.90
49236;DHT22;35067;48.134;8.378;2023-07-29T06:09:11;17.90;99.90
49236;DHT22;35067;48.134;8.378;2023-07-29T06:10:14;17.80;99.90
49236;DHT22;35067;48.134;8.378;2023-07-29T06:11:18;17.80;99.90
49236;DHT22;35067;48.134;8.378;2023-07-29T06:12:19;17.70;99.90
49236;DHT22;35067;48.134;8.378;2023-07-29T06:13:20;17.70;99.90
49236;DHT22;35067;48.134;8.378;2023-07-29T06:14:20;17.60;99.90
49236;DHT22;35067;48.134;8.378;2023-07-29T06:15:21;17.50;99.90
49236;DHT22;35067;48.134;8.378;2023-07-29T06:16:23;17.60;99.90
49236;DHT22;35067;48.134;8.378;2023-07-29T06:17:23;17.60;99.90
49236;DHT22;35067;48.134;8.378;2023-07-29T06:18:25;17.80;99.90
49236;DHT22;35067;48.134;8.378;2023-07-29T06:19:25;18.00;99.90
49236;DHT22;35067;48.134;8.378;2023-07-29T06:20:26;18.30;99.90
49236;DHT22;35067;48.134;8.378;2023-07-29T06:21:27;18.50;99.90
49236;DHT22;35067;48.134;8.378;2023-07-29T06:22:27;18.70;99.90
49236;DHT22;35067;48.134;8.378;2023-07-29T06:23:28;18.90;99.90
49236;DHT22;35067;48.134;8.378;2023-07-29T06:24:29;19.00;99.90
49236;DHT22;35067;48.134;8.378;2023-07-29T06:25:29;19.10;99.90
49236;DHT22;35067;48.134;8.378;2023-07-29T06:26:30;19.20;99.90
49236;DHT22;35067;48.134;8.378;2023-07-29T06:27:31;19.20;99.90
49236;DHT22;35067;48.134;8.378;2023-07-29T06:28:31;19.20;99.90
49236;DHT22;35067;48.134;8.378;2023-07-29T06:29:32;19.10;99.90
49236;DHT22;35067;48.134;8.378;2023-07-29T06:30:33;19.00;99.90
49236;DHT22;35067;48.134;8.378;2023-07-29T06:31:34;19.00;99.90
49236;DHT22;35067;48.134;8.378;2023-07-29T06:32:34;18.90;99.90
49236;DHT22;35067;48.134;8.378;2023-07-29T06:33:35;18.90;99.90
49236;DHT22;35067;48.134;8.378;2023-07-29T06:34:36;18.80;99.90